sensor_id;sensor_type;location;lat;lon;timestamp;P1;durP1;ratioP1;P2;durP2;ratioP2
20146;SDS011;10234;50.856;15.716;2023-05-14T00:00:30;7.45;;;4.47;;
20146;SDS011;10234;50.856;15.716;2023-05-14T00:02:57;5.72;;;4.63;;
20146;SDS011;10234;50.856;15.716;2023-05-14T00:05:26;7.80;;;4.82;;
20146;SDS011;10234;50.856;15.716;2023-05-14T00:07:53;6.68;;;3.83;;
20146;SDS011;10234;50.856;15.716;2023-05-14T00:10:20;8.48;;;3.78;;
20146;SDS011;10234;50.856;15.716;2023-05-14T00:12:47;5.10;;;4.60;;
20146;SDS011;10234;50.856;15.716;2023-05-14T00:15:16;4.55;;;3.08;;
20146;SDS011;10234;50.856;15.716;2023-05-14T00:17:44;17.58;;;4.30;;
20146;SDS011;10234;50.856;15.716;2023-05-14T00:20:11;5.43;;;3.95;;
20146;SDS011;10234;50.856;15.716;2023-05-14T00:22:38;5.72;;;4.32;;
20146;SDS011;10234;50.856;15.716;2023-05-14T00:25:06;5.90;;;3.97;;
20146;SDS011;10234;50.856;15.716;2023-05-14T00:27:34;4.28;;;3.88;;
20146;SDS011;10234;50.856;15.716;2023-05-14T00:30:02;3.95;;;3.47;;
20146;SDS011;10234;50.856;15.716;2023-05-14T00:32:31;6.03;;;4.10;;
20146;SDS011;10234;50.856;15.716;2023-05-14T00:35:00;6.07;;;4.10;;
20146;SDS011;10234;50.856;15.716;2023-05-14T00:37:28;3.80;;;3.50;;
20146;SDS011;10234;50.856;15.716;2023-05-14T00:39:55;5.50;;;3.83;;
20146;SDS011;10234;50.856;15.716;2023-05-14T00:42:22;5.13;;;3.90;;
20146;SDS011;10234;50.856;15.716;2023-05-14T00:44:51;6.68;;;4.65;;
20146;SDS011;10234;50.856;15.716;2023-05-14T00:47:18;5.03;;;3.80;;
20146;SDS011;10234;50.856;15.716;2023-05-14T00:49:45;6.13;;;4.07;;
20146;SDS011;10234;50.856;15.716;2023-05-14T00:52:13;4.57;;;3.38;;
20146;SDS011;10234;50.856;15.716;2023-05-14T00:54:43;4.32;;;3.60;;
20146;SDS011;10234;50.856;15.716;2023-05-14T00:57:11;6.20;;;3.85;;
20146;SDS011;10234;50.856;15.716;2023-05-14T00:59:38;5.45;;;3.78;;
20146;SDS011;10234;50.856;15.716;2023-05-14T01:02:06;3.65;;;3.35;;
20146;SDS011;10234;50.856;15.716;2023-05-14T01:04:34;6.28;;;3.67;;
20146;SDS011;10234;50.856;15.716;2023-05-14T01:07:04;3.88;;;3.45;;
20146;SDS011;10234;50.856;15.716;2023-05-14T01:09:41;4.43;;;3.80;;
20146;SDS011;10234;50.856;15.716;2023-05-14T01:12:14;3.00;;;2.75;;
20146;SDS011;10234;50.856;15.716;2023-05-14T01:14:50;9.82;;;4.07;;
20146;SDS011;10234;50.856;15.716;2023-05-14T01:17:21;4.05;;;3.65;;
20146;SDS011;10234;50.856;15.716;2023-05-14T01:19:50;6.10;;;3.30;;
20146;SDS011;10234;50.856;15.716;2023-05-14T01:22:18;5.00;;;3.55;;
20146;SDS011;10234;50.856;15.716;2023-05-14T01:24:45;5.35;;;3.63;;
20146;SDS011;10234;50.856;15.716;2023-05-14T01:27:15;4.75;;;3.60;;
20146;SDS011;10234;50.856;15.716;2023-05-14T01:30:02;4.28;;;2.95;;
20146;SDS011;10234;50.856;15.716;2023-05-14T01:32:35;3.47;;;2.92;;
20146;SDS011;10234;50.856;15.716;2023-05-14T01:35:05;4.35;;;3.38;;
20146;SDS011;10234;50.856;15.716;2023-05-14T01:37:35;5.05;;;3.47;;
20146;SDS011;10234;50.856;15.716;2023-05-14T01:40:04;3.38;;;3.13;;
20146;SDS011;10234;50.856;15.716;2023-05-14T01:42:32;5.82;;;3.55;;
20146;SDS011;10234;50.856;15.716;2023-05-14T01:45:00;4.25;;;2.72;;
20146;SDS011;10234;50.856;15.716;2023-05-14T01:47:28;3.92;;;3.25;;
20146;SDS011;10234;50.856;15.716;2023-05-14T01:49:55;4.72;;;3.35;;
20146;SDS011;10234;50.856;15.716;2023-05-14T01:52:22;3.20;;;2.92;;
20146;SDS011;10234;50.856;15.716;2023-05-14T01:54:50;3.72;;;3.38;;
20146;SDS011;10234;50.856;15.716;2023-05-14T01:57:17;4.10;;;3.10;;
20146;SDS011;10234;50.856;15.716;2023-05-14T01:59:45;4.60;;;3.47;;
20146;SDS011;10234;50.856;15.716;2023-05-14T02:02:12;3.95;;;3.17;;
20146;SDS011;10234;50.856;15.716;2023-05-14T02:04:39;5.47;;;3.45;;
20146;SDS011;10234;50.856;15.716;2023-05-14T02:07:06;3.33;;;2.60;;
20146;SDS011;10234;50.856;15.716;2023-05-14T02:09:33;3.78;;;3.42;;
20146;SDS011;10234;50.856;15.716;2023-05-14T02:12:02;3.70;;;3.22;;
20146;SDS011;10234;50.856;15.716;2023-05-14T02:14:29;3.30;;;2.97;;
20146;SDS011;10234;50.856;15.716;2023-05-14T02:16:56;7.15;;;3.85;;
20146;SDS011;10234;50.856;15.716;2023-05-14T02:19:23;4.32;;;3.92;;
20146;SDS011;10234;50.856;15.716;2023-05-14T02:21:51;3.25;;;3.00;;
20146;SDS011;10234;50.856;15.716;2023-05-14T02:24:18;3.72;;;3.08;;
20146;SDS011;10234;50.856;15.716;2023-05-14T02:26:45;3.33;;;2.97;;
20146;SDS011;10234;50.856;15.716;2023-05-14T02:29:14;6.10;;;3.83;;
20146;SDS011;10234;50.856;15.716;2023-05-14T02:31:41;4.38;;;3.28;;
20146;SDS011;10234;50.856;15.716;2023-05-14T02:34:08;4.50;;;3.95;;
20146;SDS011;10234;50.856;15.716;2023-05-14T02:36:35;4.38;;;3.97;;
20146;SDS011;10234;50.856;15.716;2023-05-14T02:39:02;4.25;;;3.65;;
20146;SDS011;10234;50.856;15.716;2023-05-14T02:41:29;6.18;;;4.18;;
20146;SDS011;10234;50.856;15.716;2023-05-14T02:43:57;4.25;;;3.38;;
20146;SDS011;10234;50.856;15.716;2023-05-14T02:46:29;4.20;;;3.83;;
20146;SDS011;10234;50.856;15.716;2023-05-14T02:48:56;4.38;;;3.88;;
20146;SDS011;10234;50.856;15.716;2023-05-14T02:51:23;3.78;;;3.47;;
20146;SDS011;10234;50.856;15.716;2023-05-14T02:53:51;4.15;;;3.35;;
20146;SDS011;10234;50.856;15.716;2023-05-14T02:56:18;3.05;;;2.75;;
20146;SDS011;10234;50.856;15.716;2023-05-14T02:58:46;2.97;;;2.65;;
20146;SDS011;10234;50.856;15.716;2023-05-14T03:01:13;5.00;;;2.92;;
20146;SDS011;10234;50.856;15.716;2023-05-14T03:03:42;5.72;;;3.15;;
20146;SDS011;10234;50.856;15.716;2023-05-14T03:06:09;3.42;;;3.08;;
20146;SDS011;10234;50.856;15.716;2023-05-14T03:08:36;4.05;;;3.35;;
20146;SDS011;10234;50.856;15.716;2023-05-14T03:11:03;3.65;;;3.25;;
20146;SDS011;10234;50.856;15.716;2023-05-14T03:13:30;4.25;;;2.90;;
20146;SDS011;10234;50.856;15.716;2023-05-14T03:15:57;5.65;;;3.45;;
20146;SDS011;10234;50.856;15.716;2023-05-14T03:18:24;3.95;;;3.65;;
20146;SDS011;10234;50.856;15.716;2023-05-14T03:20:53;4.25;;;3.85;;
20146;SDS011;10234;50.856;15.716;2023-05-14T03:23:20;4.70;;;3.80;;
20146;SDS011;10234;50.856;15.716;2023-05-14T03:25:47;4.65;;;3.28;;
20146;SDS011;10234;50.856;15.716;2023-05-14T03:28:15;4.28;;;2.25;;
20146;SDS011;10234;50.856;15.716;2023-05-14T03:30:42;3.42;;;3.13;;
20146;SDS011;10234;50.856;15.716;2023-05-14T03:33:09;4.00;;;2.75;;
20146;SDS011;10234;50.856;15.716;2023-05-14T03:35:36;3.70;;;3.40;;
20146;SDS011;10234;50.856;15.716;2023-05-14T03:38:04;4.10;;;2.95;;
20146;SDS011;10234;50.856;15.716;2023-05-14T03:40:31;4.85;;;2.97;;
20146;SDS011;10234;50.856;15.716;2023-05-14T03:42:58;4.18;;;3.38;;
20146;SDS011;10234;50.856;15.716;2023-05-14T03:45:26;3.38;;;3.13;;
20146;SDS011;10234;50.856;15.716;2023-05-14T03:47:54;7.80;;;3.65;;
20146;SDS011;10234;50.856;15.716;2023-05-14T03:50:21;3.75;;;3.30;;
20146;SDS011;10234;50.856;15.716;2023-05-14T03:52:49;4.65;;;3.42;;
20146;SDS011;10234;50.856;15.716;2023-05-14T03:55:18;4.47;;;4.07;;
20146;SDS011;10234;50.856;15.716;2023-05-14T03:57:45;4.97;;;4.05;;
20146;SDS011;10234;50.856;15.716;2023-05-14T04:00:13;3.70;;;3.33;;
20146;SDS011;10234;50.856;15.716;2023-05-14T04:02:40;4.28;;;3.42;;
20146;SDS011;10234;50.856;15.716;2023-05-14T04:05:07;3.60;;;3.25;;
20146;SDS011;10234;50.856;15.716;2023-05-14T04:07:34;4.32;;;3.65;;
20146;SDS011;10234;50.856;15.716;2023-05-14T04:10:02;5.43;;;3.50;;
20146;SDS011;10234;50.856;15.716;2023-05-14T04:12:30;3.88;;;3.50;;
20146;SDS011;10234;50.856;15.716;2023-05-14T04:14:57;3.78;;;3.47;;
20146;SDS011;10234;50.856;15.716;2023-05-14T04:17:24;5.68;;;3.70;;
20146;SDS011;10234;50.856;15.716;2023-05-14T04:19:51;10.05;;;3.80;;
20146;SDS011;10234;50.856;15.716;2023-05-14T04:22:18;3.70;;;3.40;;
20146;SDS011;10234;50.856;15.716;2023-05-14T04:24:45;3.55;;;3.25;;
20146;SDS011;10234;50.856;15.716;2023-05-14T04:27:13;3.95;;;3.30;;
20146;SDS011;10234;50.856;15.716;2023-05-14T04:29:46;2.85;;;2.55;;
20146;SDS011;10234;50.856;15.716;2023-05-14T04:32:13;3.75;;;3.45;;
20146;SDS011;10234;50.856;15.716;2023-05-14T04:34:41;4.82;;;3.08;;
20146;SDS011;10234;50.856;15.716;2023-05-14T04:37:08;3.42;;;3.13;;
20146;SDS011;10234;50.856;15.716;2023-05-14T04:39:36;3.20;;;2.92;;
20146;SDS011;10234;50.856;15.716;2023-05-14T04:42:06;4.72;;;3.10;;
20146;SDS011;10234;50.856;15.716;2023-05-14T04:44:33;4.20;;;3.33;;
20146;SDS011;10234;50.856;15.716;2023-05-14T04:47:03;3.85;;;3.45;;
20146;SDS011;10234;50.856;15.716;2023-05-14T04:49:31;4.18;;;3.20;;
20146;SDS011;10234;50.856;15.716;2023-05-14T04:51:58;4.57;;;3.38;;
20146;SDS011;10234;50.856;15.716;2023-05-14T04:54:26;5.05;;;3.63;;
20146;SDS011;10234;50.856;15.716;2023-05-14T04:56:53;6.00;;;3.55;;
20146;SDS011;10234;50.856;15.716;2023-05-14T04:59:20;4.03;;;3.53;;
20146;SDS011;10234;50.856;15.716;2023-05-14T05:01:47;5.25;;;3.28;;
20146;SDS011;10234;50.856;15.716;2023-05-14T05:04:17;4.30;;;3.28;;
20146;SDS011;10234;50.856;15.716;2023-05-14T05:06:44;3.85;;;3.22;;
20146;SDS011;10234;50.856;15.716;2023-05-14T05:09:14;3.53;;;3.22;;
20146;SDS011;10234;50.856;15.716;2023-05-14T05:11:41;3.90;;;3.42;;
20146;SDS011;10234;50.856;15.716;2023-05-14T05:14:08;4.70;;;3.67;;
20146;SDS011;10234;50.856;15.716;2023-05-14T05:16:35;4.78;;;3.38;;
20146;SDS011;10234;50.856;15.716;2023-05-14T05:19:02;4.68;;;3.25;;
20146;SDS011;10234;50.856;15.716;2023-05-14T05:21:31;5.70;;;3.47;;
20146;SDS011;10234;50.856;15.716;2023-05-14T05:23:58;3.90;;;3.33;;
20146;SDS011;10234;50.856;15.716;2023-05-14T05:26:25;5.07;;;3.28;;
20146;SDS011;10234;50.856;15.716;2023-05-14T05:28:52;5.20;;;3.42;;
20146;SDS011;10234;50.856;15.716;2023-05-14T05:31:19;5.18;;;3.15;;
20146;SDS011;10234;50.856;15.716;2023-05-14T05:33:46;3.90;;;2.70;;
20146;SDS011;10234;50.856;15.716;2023-05-14T05:36:14;3.10;;;2.70;;
20146;SDS011;10234;50.856;15.716;2023-05-14T05:38:42;3.75;;;2.80;;
20146;SDS011;10234;50.856;15.716;2023-05-14T05:41:09;3.53;;;3.22;;
20146;SDS011;10234;50.856;15.716;2023-05-14T05:43:36;3.55;;;3.25;;
20146;SDS011;10234;50.856;15.716;2023-05-14T05:46:03;2.78;;;2.58;;
20146;SDS011;10234;50.856;15.716;2023-05-14T05:48:31;3.10;;;2.83;;
20146;SDS011;10234;50.856;15.716;2023-05-14T05:50:58;4.32;;;3.10;;
20146;SDS011;10234;50.856;15.716;2023-05-14T05:53:25;3.30;;;2.97;;
20146;SDS011;10234;50.856;15.716;2023-05-14T05:55:53;4.00;;;3.00;;
20146;SDS011;10234;50.856;15.716;2023-05-14T05:58:20;3.95;;;2.97;;
20146;SDS011;10234;50.856;15.716;2023-05-14T06:00:47;3.53;;;2.90;;
20146;SDS011;10234;50.856;15.716;2023-05-14T06:03:15;2.78;;;2.58;;
20146;SDS011;10234;50.856;15.716;2023-05-14T06:05:42;3.88;;;2.63;;
20146;SDS011;10234;50.856;15.716;2023-05-14T06:08:10;4.50;;;3.03;;
20146;SDS011;10234;50.856;15.716;2023-05-14T06:10:37;4.40;;;3.03;;
20146;SDS011;10234;50.856;15.716;2023-05-14T06:13:06;3.17;;;2.60;;
20146;SDS011;10234;50.856;15.716;2023-05-14T06:15:33;3.08;;;2.80;;
20146;SDS011;10234;50.856;15.716;2023-05-14T06:18:00;3.42;;;3.00;;
20146;SDS011;10234;50.856;15.716;2023-05-14T06:20:27;3.80;;;3.00;;
20146;SDS011;10234;50.856;15.716;2023-05-14T06:22:54;5.80;;;3.55;;
20146;SDS011;10234;50.856;15.716;2023-05-14T06:25:21;3.17;;;2.88;;
20146;SDS011;10234;50.856;15.716;2023-05-14T06:27:48;4.00;;;2.88;;
20146;SDS011;10234;50.856;15.716;2023-05-14T06:30:17;3.28;;;2.88;;
20146;SDS011;10234;50.856;15.716;2023-05-14T06:32:44;3.05;;;2.72;;
20146;SDS011;10234;50.856;15.716;2023-05-14T06:35:11;3.10;;;2.80;;
20146;SDS011;10234;50.856;15.716;2023-05-14T06:37:38;5.22;;;4.22;;
20146;SDS011;10234;50.856;15.716;2023-05-14T06:40:06;3.22;;;2.92;;
20146;SDS011;10234;50.856;15.716;2023-05-14T06:42:34;3.17;;;2.70;;
20146;SDS011;10234;50.856;15.716;2023-05-14T06:45:02;3.47;;;3.17;;
20146;SDS011;10234;50.856;15.716;2023-05-14T06:47:30;5.20;;;3.38;;
20146;SDS011;10234;50.856;15.716;2023-05-14T06:49:57;4.25;;;3.03;;
20146;SDS011;10234;50.856;15.716;2023-05-14T06:52:25;3.25;;;2.75;;
20146;SDS011;10234;50.856;15.716;2023-05-14T06:54:53;4.45;;;3.33;;
20146;SDS011;10234;50.856;15.716;2023-05-14T06:57:20;3.67;;;3.08;;
20146;SDS011;10234;50.856;15.716;2023-05-14T06:59:47;3.78;;;3.47;;
20146;SDS011;10234;50.856;15.716;2023-05-14T07:02:15;3.20;;;2.90;;
20146;SDS011;10234;50.856;15.716;2023-05-14T07:04:43;4.38;;;3.30;;
20146;SDS011;10234;50.856;15.716;2023-05-14T07:07:10;3.63;;;3.10;;
20146;SDS011;10234;50.856;15.716;2023-05-14T07:09:39;3.95;;;3.20;;
20146;SDS011;10234;50.856;15.716;2023-05-14T07:12:07;3.58;;;3.10;;
20146;SDS011;10234;50.856;15.716;2023-05-14T07:14:34;3.25;;;2.78;;
20146;SDS011;10234;50.856;15.716;2023-05-14T07:17:01;4.50;;;3.20;;
20146;SDS011;10234;50.856;15.716;2023-05-14T07:19:28;3.33;;;3.03;;
20146;SDS011;10234;50.856;15.716;2023-05-14T07:21:57;3.15;;;2.85;;
20146;SDS011;10234;50.856;15.716;2023-05-14T07:24:24;3.53;;;3.03;;
20146;SDS011;10234;50.856;15.716;2023-05-14T07:26:50;4.78;;;3.30;;
20146;SDS011;10234;50.856;15.716;2023-05-14T07:29:18;6.25;;;3.10;;
20146;SDS011;10234;50.856;15.716;2023-05-14T07:31:45;4.15;;;3.13;;
20146;SDS011;10234;50.856;15.716;2023-05-14T07:34:14;3.80;;;2.92;;
20146;SDS011;10234;50.856;15.716;2023-05-14T07:36:41;5.53;;;3.55;;
20146;SDS011;10234;50.856;15.716;2023-05-14T07:39:10;5.03;;;3.25;;
20146;SDS011;10234;50.856;15.716;2023-05-14T07:41:37;4.13;;;3.10;;
20146;SDS011;10234;50.856;15.716;2023-05-14T07:44:04;4.22;;;3.10;;
20146;SDS011;10234;50.856;15.716;2023-05-14T07:46:32;6.00;;;3.88;;
20146;SDS011;10234;50.856;15.716;2023-05-14T07:48:59;4.30;;;3.40;;
20146;SDS011;10234;50.856;15.716;2023-05-14T07:51:26;3.80;;;3.20;;
20146;SDS011;10234;50.856;15.716;2023-05-14T07:53:53;4.28;;;3.15;;
20146;SDS011;10234;50.856;15.716;2023-05-14T07:56:22;4.82;;;3.53;;
20146;SDS011;10234;50.856;15.716;2023-05-14T07:58:49;4.07;;;3.17;;
20146;SDS011;10234;50.856;15.716;2023-05-14T08:01:17;4.93;;;3.88;;
20146;SDS011;10234;50.856;15.716;2023-05-14T08:03:44;4.53;;;3.60;;
20146;SDS011;10234;50.856;15.716;2023-05-14T08:06:11;4.68;;;3.88;;
20146;SDS011;10234;50.856;15.716;2023-05-14T08:08:40;4.18;;;3.38;;
20146;SDS011;10234;50.856;15.716;2023-05-14T08:11:07;4.10;;;3.13;;
20146;SDS011;10234;50.856;15.716;2023-05-14T08:13:36;3.85;;;3.25;;
20146;SDS011;10234;50.856;15.716;2023-05-14T08:16:03;4.40;;;3.17;;
20146;SDS011;10234;50.856;15.716;2023-05-14T08:18:31;2.72;;;2.53;;
20146;SDS011;10234;50.856;15.716;2023-05-14T08:20:58;3.90;;;2.88;;
20146;SDS011;10234;50.856;15.716;2023-05-14T08:23:25;3.75;;;2.60;;
20146;SDS011;10234;50.856;15.716;2023-05-14T08:25:52;3.03;;;2.67;;
20146;SDS011;10234;50.856;15.716;2023-05-14T08:28:19;3.90;;;2.05;;
20146;SDS011;10234;50.856;15.716;2023-05-14T08:30:48;2.83;;;2.33;;
20146;SDS011;10234;50.856;15.716;2023-05-14T08:33:15;2.30;;;2.10;;
20146;SDS011;10234;50.856;15.716;2023-05-14T08:35:43;3.35;;;2.47;;
20146;SDS011;10234;50.856;15.716;2023-05-14T08:38:10;3.15;;;2.30;;
20146;SDS011;10234;50.856;15.716;2023-05-14T08:40:37;3.42;;;2.20;;
20146;SDS011;10234;50.856;15.716;2023-05-14T08:43:04;2.45;;;1.80;;
20146;SDS011;10234;50.856;15.716;2023-05-14T08:45:32;2.00;;;1.85;;
20146;SDS011;10234;50.856;15.716;2023-05-14T08:48:02;2.33;;;1.75;;
20146;SDS011;10234;50.856;15.716;2023-05-14T08:50:32;2.83;;;2.10;;
20146;SDS011;10234;50.856;15.716;2023-05-14T08:53:00;3.65;;;2.45;;
20146;SDS011;10234;50.856;15.716;2023-05-14T08:55:27;3.60;;;2.35;;
20146;SDS011;10234;50.856;15.716;2023-05-14T08:57:54;2.90;;;2.13;;
20146;SDS011;10234;50.856;15.716;2023-05-14T09:00:21;2.92;;;2.25;;
20146;SDS011;10234;50.856;15.716;2023-05-14T09:02:48;2.45;;;1.80;;
20146;SDS011;10234;50.856;15.716;2023-05-14T09:05:18;2.08;;;1.85;;
20146;SDS011;10234;50.856;15.716;2023-05-14T09:07:46;3.17;;;2.65;;
20146;SDS011;10234;50.856;15.716;2023-05-14T09:10:13;2.58;;;2.38;;
20146;SDS011;10234;50.856;15.716;2023-05-14T09:12:40;1.95;;;1.83;;
20146;SDS011;10234;50.856;15.716;2023-05-14T09:15:08;2.40;;;2.20;;
20146;SDS011;10234;50.856;15.716;2023-05-14T09:17:35;2.25;;;2.05;;
20146;SDS011;10234;50.856;15.716;2023-05-14T09:20:03;2.50;;;2.00;;
20146;SDS011;10234;50.856;15.716;2023-05-14T09:22:33;2.08;;;1.77;;
20146;SDS011;10234;50.856;15.716;2023-05-14T09:25:01;2.35;;;2.15;;
20146;SDS011;10234;50.856;15.716;2023-05-14T09:27:29;2.20;;;2.00;;
20146;SDS011;10234;50.856;15.716;2023-05-14T09:30:03;2.58;;;2.38;;
20146;SDS011;10234;50.856;15.716;2023-05-14T09:32:34;7.60;;;2.35;;
20146;SDS011;10234;50.856;15.716;2023-05-14T09:35:12;2.50;;;2.30;;
20146;SDS011;10234;50.856;15.716;2023-05-14T09:37:43;3.47;;;2.20;;
20146;SDS011;10234;50.856;15.716;2023-05-14T09:40:11;3.17;;;2.40;;
20146;SDS011;10234;50.856;15.716;2023-05-14T09:42:39;2.58;;;2.28;;
20146;SDS011;10234;50.856;15.716;2023-05-14T09:45:06;4.47;;;2.30;;
20146;SDS011;10234;50.856;15.716;2023-05-14T09:47:34;1.90;;;1.77;;
20146;SDS011;10234;50.856;15.716;2023-05-14T09:50:01;2.58;;;2.08;;
20146;SDS011;10234;50.856;15.716;2023-05-14T09:52:28;3.30;;;2.22;;
20146;SDS011;10234;50.856;15.716;2023-05-14T09:54:57;2.05;;;1.88;;
20146;SDS011;10234;50.856;15.716;2023-05-14T09:57:24;5.57;;;2.20;;
20146;SDS011;10234;50.856;15.716;2023-05-14T09:59:52;4.25;;;2.15;;
20146;SDS011;10234;50.856;15.716;2023-05-14T10:02:22;2.22;;;2.03;;
20146;SDS011;10234;50.856;15.716;2023-05-14T10:04:52;2.28;;;2.08;;
20146;SDS011;10234;50.856;15.716;2023-05-14T10:07:22;2.03;;;1.92;;
20146;SDS011;10234;50.856;15.716;2023-05-14T10:09:56;2.30;;;2.10;;
20146;SDS011;10234;50.856;15.716;2023-05-14T10:12:27;3.72;;;2.30;;
20146;SDS011;10234;50.856;15.716;2023-05-14T10:14:57;5.18;;;1.95;;
20146;SDS011;10234;50.856;15.716;2023-05-14T10:17:30;1.98;;;1.77;;
20146;SDS011;10234;50.856;15.716;2023-05-14T10:19:59;2.72;;;2.05;;
20146;SDS011;10234;50.856;15.716;2023-05-14T10:22:30;2.22;;;2.10;;
20146;SDS011;10234;50.856;15.716;2023-05-14T10:25:02;2.30;;;2.10;;
20146;SDS011;10234;50.856;15.716;2023-05-14T10:27:30;3.50;;;2.17;;
20146;SDS011;10234;50.856;15.716;2023-05-14T10:29:57;2.35;;;2.13;;
20146;SDS011;10234;50.856;15.716;2023-05-14T10:32:24;2.55;;;2.33;;
20146;SDS011;10234;50.856;15.716;2023-05-14T10:34:57;2.08;;;1.98;;
20146;SDS011;10234;50.856;15.716;2023-05-14T10:37:24;2.33;;;1.92;;
20146;SDS011;10234;50.856;15.716;2023-05-14T10:39:52;2.17;;;2.08;;
20146;SDS011;10234;50.856;15.716;2023-05-14T10:42:25;2.67;;;2.45;;
20146;SDS011;10234;50.856;15.716;2023-05-14T10:44:53;2.85;;;2.22;;
20146;SDS011;10234;50.856;15.716;2023-05-14T10:47:22;2.70;;;2.50;;
20146;SDS011;10234;50.856;15.716;2023-05-14T10:49:51;2.47;;;2.28;;
20146;SDS011;10234;50.856;15.716;2023-05-14T10:52:20;2.53;;;2.28;;
20146;SDS011;10234;50.856;15.716;2023-05-14T10:54:50;2.15;;;1.95;;
20146;SDS011;10234;50.856;15.716;2023-05-14T10:57:19;3.28;;;2.50;;
20146;SDS011;10234;50.856;15.716;2023-05-14T10:59:48;3.17;;;2.15;;
20146;SDS011;10234;50.856;15.716;2023-05-14T11:02:22;2.38;;;2.00;;
20146;SDS011;10234;50.856;15.716;2023-05-14T11:04:54;2.63;;;2.25;;
20146;SDS011;10234;50.856;15.716;2023-05-14T11:07:23;3.30;;;2.42;;
20146;SDS011;10234;50.856;15.716;2023-05-14T11:09:55;2.60;;;2.40;;
20146;SDS011;10234;50.856;15.716;2023-05-14T11:12:26;3.65;;;2.22;;
20146;SDS011;10234;50.856;15.716;2023-05-14T11:14:54;3.83;;;2.60;;
20146;SDS011;10234;50.856;15.716;2023-05-14T11:17:23;3.00;;;2.70;;
20146;SDS011;10234;50.856;15.716;2023-05-14T11:19:50;3.38;;;2.50;;
20146;SDS011;10234;50.856;15.716;2023-05-14T11:22:17;3.40;;;3.10;;
20146;SDS011;10234;50.856;15.716;2023-05-14T11:24:45;3.10;;;2.20;;
20146;SDS011;10234;50.856;15.716;2023-05-14T11:27:12;4.35;;;2.45;;
20146;SDS011;10234;50.856;15.716;2023-05-14T11:29:42;4.07;;;1.95;;
20146;SDS011;10234;50.856;15.716;2023-05-14T11:32:11;2.42;;;2.20;;
20146;SDS011;10234;50.856;15.716;2023-05-14T11:34:39;1.95;;;1.85;;
20146;SDS011;10234;50.856;15.716;2023-05-14T11:37:08;2.95;;;2.50;;
20146;SDS011;10234;50.856;15.716;2023-05-14T11:39:37;2.45;;;2.25;;
20146;SDS011;10234;50.856;15.716;2023-05-14T11:42:08;2.50;;;2.28;;
20146;SDS011;10234;50.856;15.716;2023-05-14T11:44:38;2.63;;;2.38;;
20146;SDS011;10234;50.856;15.716;2023-05-14T11:47:08;2.75;;;2.55;;
20146;SDS011;10234;50.856;15.716;2023-05-14T11:49:37;4.32;;;2.38;;
20146;SDS011;10234;50.856;15.716;2023-05-14T11:52:05;2.60;;;2.40;;
20146;SDS011;10234;50.856;15.716;2023-05-14T11:54:34;2.90;;;2.60;;
20146;SDS011;10234;50.856;15.716;2023-05-14T11:57:01;3.83;;;2.92;;
20146;SDS011;10234;50.856;15.716;2023-05-14T11:59:33;4.43;;;2.88;;
20146;SDS011;10234;50.856;15.716;2023-05-14T12:02:00;3.03;;;2.78;;
20146;SDS011;10234;50.856;15.716;2023-05-14T12:04:28;4.47;;;3.40;;
20146;SDS011;10234;50.856;15.716;2023-05-14T12:06:57;3.40;;;2.75;;
20146;SDS011;10234;50.856;15.716;2023-05-14T12:09:25;4.10;;;3.38;;
20146;SDS011;10234;50.856;15.716;2023-05-14T12:11:52;4.07;;;2.97;;
20146;SDS011;10234;50.856;15.716;2023-05-14T12:14:20;5.80;;;3.35;;
20146;SDS011;10234;50.856;15.716;2023-05-14T12:16:48;4.82;;;3.28;;
20146;SDS011;10234;50.856;15.716;2023-05-14T12:19:17;4.30;;;3.45;;
20146;SDS011;10234;50.856;15.716;2023-05-14T12:21:46;3.30;;;3.00;;
20146;SDS011;10234;50.856;15.716;2023-05-14T12:24:16;3.88;;;3.47;;
20146;SDS011;10234;50.856;15.716;2023-05-14T12:26:46;5.40;;;3.50;;
20146;SDS011;10234;50.856;15.716;2023-05-14T12:29:15;4.95;;;3.78;;
20146;SDS011;10234;50.856;15.716;2023-05-14T12:31:45;4.40;;;4.00;;
20146;SDS011;10234;50.856;15.716;2023-05-14T12:34:12;4.88;;;3.95;;
20146;SDS011;10234;50.856;15.716;2023-05-14T12:36:40;5.05;;;3.72;;
20146;SDS011;10234;50.856;15.716;2023-05-14T12:39:07;4.15;;;3.65;;
20146;SDS011;10234;50.856;15.716;2023-05-14T12:41:36;7.50;;;4.30;;
20146;SDS011;10234;50.856;15.716;2023-05-14T12:44:04;4.78;;;3.85;;
20146;SDS011;10234;50.856;15.716;2023-05-14T12:46:31;4.38;;;3.92;;
20146;SDS011;10234;50.856;15.716;2023-05-14T12:48:59;6.15;;;4.15;;
20146;SDS011;10234;50.856;15.716;2023-05-14T12:51:26;4.78;;;3.70;;
20146;SDS011;10234;50.856;15.716;2023-05-14T12:53:54;4.63;;;4.03;;
20146;SDS011;10234;50.856;15.716;2023-05-14T12:56:21;7.32;;;3.85;;
20146;SDS011;10234;50.856;15.716;2023-05-14T12:58:54;4.75;;;3.63;;
20146;SDS011;10234;50.856;15.716;2023-05-14T13:01:21;6.07;;;4.00;;
20146;SDS011;10234;50.856;15.716;2023-05-14T13:03:48;3.78;;;3.25;;
20146;SDS011;10234;50.856;15.716;2023-05-14T13:06:16;4.55;;;4.10;;
20146;SDS011;10234;50.856;15.716;2023-05-14T13:08:43;3.85;;;3.20;;
20146;SDS011;10234;50.856;15.716;2023-05-14T13:11:12;3.83;;;3.42;;
20146;SDS011;10234;50.856;15.716;2023-05-14T13:13:39;5.43;;;4.00;;
20146;SDS011;10234;50.856;15.716;2023-05-14T13:16:07;6.18;;;4.07;;
20146;SDS011;10234;50.856;15.716;2023-05-14T13:18:34;6.43;;;4.60;;
20146;SDS011;10234;50.856;15.716;2023-05-14T13:21:11;6.75;;;3.85;;
20146;SDS011;10234;50.856;15.716;2023-05-14T13:23:38;4.97;;;3.80;;
20146;SDS011;10234;50.856;15.716;2023-05-14T13:26:05;3.95;;;3.55;;
20146;SDS011;10234;50.856;15.716;2023-05-14T13:28:32;5.72;;;4.25;;
20146;SDS011;10234;50.856;15.716;2023-05-14T13:31:03;5.78;;;4.10;;
20146;SDS011;10234;50.856;15.716;2023-05-14T13:33:33;4.40;;;3.90;;
20146;SDS011;10234;50.856;15.716;2023-05-14T13:36:01;4.43;;;3.80;;
20146;SDS011;10234;50.856;15.716;2023-05-14T13:38:28;4.32;;;3.88;;
20146;SDS011;10234;50.856;15.716;2023-05-14T13:40:56;4.75;;;4.13;;
20146;SDS011;10234;50.856;15.716;2023-05-14T13:43:26;3.80;;;3.50;;
20146;SDS011;10234;50.856;15.716;2023-05-14T13:45:54;6.28;;;4.10;;
20146;SDS011;10234;50.856;15.716;2023-05-14T13:48:21;4.63;;;3.88;;
20146;SDS011;10234;50.856;15.716;2023-05-14T13:50:50;7.15;;;4.28;;
20146;SDS011;10234;50.856;15.716;2023-05-14T13:53:17;5.18;;;4.07;;
20146;SDS011;10234;50.856;15.716;2023-05-14T13:55:44;5.95;;;4.32;;
20146;SDS011;10234;50.856;15.716;2023-05-14T13:58:12;5.57;;;4.72;;
20146;SDS011;10234;50.856;15.716;2023-05-14T14:00:39;4.78;;;4.28;;
20146;SDS011;10234;50.856;15.716;2023-05-14T14:03:07;4.13;;;3.72;;
20146;SDS011;10234;50.856;15.716;2023-05-14T14:05:34;4.57;;;3.72;;
20146;SDS011;10234;50.856;15.716;2023-05-14T14:08:03;4.78;;;4.15;;
20146;SDS011;10234;50.856;15.716;2023-05-14T14:10:30;5.18;;;4.30;;
20146;SDS011;10234;50.856;15.716;2023-05-14T14:12:57;6.55;;;4.38;;
20146;SDS011;10234;50.856;15.716;2023-05-14T14:15:24;5.32;;;4.82;;
20146;SDS011;10234;50.856;15.716;2023-05-14T14:17:51;5.20;;;4.07;;
20146;SDS011;10234;50.856;15.716;2023-05-14T14:20:18;6.15;;;4.50;;
20146;SDS011;10234;50.856;15.716;2023-05-14T14:22:45;4.15;;;3.78;;
20146;SDS011;10234;50.856;15.716;2023-05-14T14:25:14;7.82;;;5.45;;
20146;SDS011;10234;50.856;15.716;2023-05-14T14:27:41;7.70;;;6.28;;
20146;SDS011;10234;50.856;15.716;2023-05-14T14:30:08;7.47;;;5.25;;
20146;SDS011;10234;50.856;15.716;2023-05-14T14:32:40;4.28;;;3.88;;
20146;SDS011;10234;50.856;15.716;2023-05-14T14:35:08;4.63;;;3.83;;
20146;SDS011;10234;50.856;15.716;2023-05-14T14:37:36;6.38;;;4.47;;